Time;durP1;ratioP1;P1;durP2;ratioP2;P2;SDS_P1;SDS_P2;PMS_P1;PMS_P2;Temp;Humidity;BMP_temperature;BMP_pressure;BME280_temperature;BME280_humidity;BME280_pressure;Samples;Min_cycle;Max_cycle;Signal;HPM_P1;HPM_P2
2021/03/12 00:02:16;;;;;;;0.85;0.40;;;7.70;72.80;;;;;;5043905;28;20037;-58
2021/03/12 00:04:42;;;;;;;0.47;0.30;;;7.70;72.20;;;;;;5044005;28;20308;-59
2021/03/12 00:07:07;;;;;;;0.60;0.30;;;7.40;72.70;;;;;;5043340;28;20048;-59
2021/03/12 00:09:33;;;;;;;0.30;0.30;;;7.50;73.10;;;;;;5043519;28;20038;-59
2021/03/12 00:11:58;;;;;;;1.08;0.38;;;7.40;73.40;;;;;;5043263;28;20041;-59
2021/03/12 00:14:24;;;;;;;0.40;0.40;;;7.30;73.60;;;;;;5044894;28;20037;-58
2021/03/12 00:16:49;;;;;;;0.38;0.30;;;7.40;73.40;;;;;;5043770;28;20041;-58
2021/03/12 00:19:15;;;;;;;0.75;0.30;;;7.30;73.30;;;;;;5043475;28;20057;-59
2021/03/12 00:21:40;;;;;;;0.32;0.30;;;7.20;73.80;;;;;;5043427;28;20033;-59
2021/03/12 00:24:07;;;;;;;0.40;0.30;;;7.30;74.00;;;;;;5043284;28;20029;-58
2021/03/12 00:26:32;;;;;;;0.30;0.30;;;7.40;73.60;;;;;;5042690;28;20037;-58
2021/03/12 00:28:58;;;;;;;1.20;0.30;;;7.20;73.30;;;;;;5024863;28;20137;-58
2021/03/12 00:31:23;;;;;;;0.30;0.30;;;7.20;73.30;;;;;;5039350;28;20040;-59
2021/03/12 00:33:49;;;;;;;1.17;0.40;;;7.10;74.40;;;;;;5043095;28;20389;-58
2021/03/12 00:36:14;;;;;;;0.85;0.40;;;7.20;74.30;;;;;;5042724;28;20045;-58
2021/03/12 00:38:40;;;;;;;1.25;0.35;;;7.20;74.10;;;;;;5043307;28;20037;-58
2021/03/12 00:41:06;;;;;;;0.80;0.40;;;7.30;73.90;;;;;;5044715;28;20033;-58
2021/03/12 00:43:32;;;;;;;0.93;0.40;;;7.10;73.00;;;;;;5043258;28;20041;-58
2021/03/12 00:46:03;;;;;;;0.82;0.30;;;7.20;73.80;;;;;;5042638;28;20064;-58
2021/03/12 00:48:29;;;;;;;;;;;7.10;74.30;;;;;;5043346;28;20044;-58
2021/03/12 00:50:55;;;;;;;1.67;0.40;;;7.10;73.90;;;;;;5042737;28;19940;-58
2021/03/12 00:53:21;;;;;;;1.15;0.40;;;6.90;74.10;;;;;;5044555;28;20029;-58
2021/03/12 00:55:46;;;;;;;0.40;0.40;;;6.90;74.40;;;;;;5042973;28;20037;-59
2021/03/12 00:58:12;;;;;;;0.70;0.30;;;7.00;73.70;;;;;;5042932;28;20037;-58
2021/03/12 01:00:38;;;;;;;1.02;0.40;;;7.00;74.30;;;;;;5042529;28;20045;-59
2021/03/12 01:03:04;;;;;;;1.00;0.40;;;7.00;74.50;;;;;;5042529;28;20078;-58
2021/03/12 01:05:30;;;;;;;0.57;0.40;;;7.00;75.00;;;;;;5044209;28;20025;-60
2021/03/12 01:07:56;;;;;;;1.92;0.40;;;7.10;74.80;;;;;;5043661;28;20075;-59
2021/03/12 01:10:22;;;;;;;0.73;0.32;;;7.00;74.50;;;;;;5026582;28;20038;-59
2021/03/12 01:12:47;;;;;;;0.98;0.35;;;7.00;73.70;;;;;;5033060;28;20033;-58
2021/03/12 01:15:15;;;;;;;1.10;0.40;;;7.00;73.90;;;;;;5042453;28;20324;-58
2021/03/12 01:17:41;;;;;;;1.73;0.40;;;7.10;74.00;;;;;;5041395;28;20040;-58
2021/03/12 01:20:08;;;;;;;1.88;0.50;;;7.10;74.10;;;;;;5044168;28;20034;-58
2021/03/12 01:22:34;;;;;;;0.43;0.40;;;7.10;74.30;;;;;;5042556;28;20034;-59
2021/03/12 01:25:00;;;;;;;2.03;0.50;;;7.00;74.50;;;;;;5042381;28;20057;-58
2021/03/12 01:27:26;;;;;;;1.48;0.50;;;6.90;75.20;;;;;;5041043;28;20034;-58
2021/03/12 01:29:53;;;;;;;0.63;0.40;;;6.90;75.40;;;;;;5042144;28;20034;-58
2021/03/12 01:32:18;;;;;;;0.75;0.40;;;6.90;75.30;;;;;;5043818;28;20378;-58
2021/03/12 01:34:44;;;;;;;0.30;0.30;;;6.90;75.60;;;;;;5042584;28;20037;-59
2021/03/12 01:37:09;;;;;;;0.98;0.68;;;6.90;75.50;;;;;;5041990;28;20065;-59
2021/03/12 01:39:35;;;;;;;0.55;0.40;;;6.90;75.10;;;;;;5041977;28;20041;-59
2021/03/12 01:42:00;;;;;;;0.68;0.40;;;6.90;75.70;;;;;;5042186;28;20198;-59
2021/03/12 01:44:27;;;;;;;1.20;0.40;;;6.80;75.60;;;;;;5043663;28;20075;-58
2021/03/12 01:46:52;;;;;;;0.82;0.30;;;6.80;75.70;;;;;;5042518;28;20072;-59
2021/03/12 01:49:18;;;;;;;0.68;0.43;;;6.90;75.80;;;;;;5042586;28;20029;-59
2021/03/12 01:51:43;;;;;;;0.65;0.40;;;6.80;75.80;;;;;;5042242;28;20076;-59
2021/03/12 01:54:09;;;;;;;2.55;0.40;;;6.70;76.00;;;;;;5036609;28;20265;-58
2021/03/12 01:56:34;;;;;;;0.65;0.40;;;6.80;76.10;;;;;;5022455;28;20041;-59
2021/03/12 01:59:00;;;;;;;1.08;0.40;;;6.70;76.50;;;;;;5024109;28;20028;-58
2021/03/12 02:01:26;;;;;;;1.50;0.30;;;6.80;76.50;;;;;;5037190;28;20109;-59
2021/03/12 02:03:51;;;;;;;0.63;0.30;;;6.80;76.30;;;;;;5041956;28;20037;-58
2021/03/12 02:06:17;;;;;;;0.32;0.30;;;6.70;76.00;;;;;;5041922;28;20036;-59
2021/03/12 02:08:42;;;;;;;0.95;0.30;;;6.60;75.80;;;;;;5041771;28;20079;-59
2021/03/12 02:11:08;;;;;;;0.60;0.40;;;6.50;75.40;;;;;;5043701;28;20025;-59
2021/03/12 02:13:56;;;;;;;0.30;0.30;;;6.50;75.70;;;;;;5042083;28;20041;-59
2021/03/12 02:16:33;;;;;;;0.32;0.30;;;6.50;75.30;;;;;;5009878;28;20349;-59
2021/03/12 02:19:33;;;;;;;0.65;0.30;;;6.40;74.60;;;;;;5016845;28;20352;-58
2021/03/12 02:21:58;;;;;;;0.93;0.30;;;6.30;75.60;;;;;;5041990;28;20026;-59
2021/03/12 02:24:27;;;;;;;0.85;0.32;;;6.20;75.30;;;;;;5043737;28;20095;-59
2021/03/12 02:27:13;;;;;;;1.13;0.50;;;6.20;75.10;;;;;;5045365;28;20033;-59
2021/03/12 02:29:45;;;;;;;2.17;0.50;;;6.30;74.90;;;;;;5044805;28;20022;-59
2021/03/12 02:32:17;;;;;;;1.88;0.43;;;6.30;74.90;;;;;;5046884;28;20032;-59
2021/03/12 02:34:44;;;;;;;1.65;0.50;;;6.20;74.40;;;;;;5044914;28;20057;-58
2021/03/12 02:37:09;;;;;;;1.02;0.50;;;6.20;74.30;;;;;;5045139;28;20263;-58
2021/03/12 02:39:36;;;;;;;1.45;0.40;;;6.20;74.30;;;;;;5019063;28;20042;-59
2021/03/12 02:42:02;;;;;;;1.05;0.40;;;6.10;74.40;;;;;;5029610;28;20043;-58
2021/03/12 02:44:29;;;;;;;1.02;0.40;;;6.10;74.50;;;;;;5045488;28;20093;-59
2021/03/12 02:47:00;;;;;;;1.00;0.30;;;6.20;74.40;;;;;;5027496;28;20096;-58
2021/03/12 02:49:25;;;;;;;0.30;0.30;;;6.20;74.70;;;;;;5044396;28;20225;-59
2021/03/12 02:51:51;;;;;;;1.92;0.50;;;6.30;73.80;;;;;;5045157;28;20030;-59
2021/03/12 02:54:17;;;;;;;1.08;0.30;;;6.20;73.60;;;;;;5045327;28;20035;-58
2021/03/12 02:56:42;;;;;;;1.75;0.40;;;6.20;74.10;;;;;;5044942;28;20061;-59
2021/03/12 02:59:10;;;;;;;2.05;0.70;;;6.10;73.50;;;;;;5045510;28;20040;-59
2021/03/12 03:01:35;;;;;;;1.83;0.40;;;6.00;73.20;;;;;;5044949;28;20068;-58
2021/03/12 03:04:01;;;;;;;0.70;0.40;;;6.10;73.70;;;;;;5015111;28;20068;-58
2021/03/12 03:06:26;;;;;;;3.35;0.40;;;6.00;72.80;;;;;;5023869;28;20038;-58
2021/03/12 03:08:52;;;;;;;2.65;0.45;;;6.00;72.60;;;;;;5026769;28;20033;-59
2021/03/12 03:11:17;;;;;;;3.65;0.57;;;6.00;73.50;;;;;;5046139;28;20259;-59
2021/03/12 03:13:44;;;;;;;1.25;0.40;;;6.00;72.40;;;;;;5025789;28;20084;-59
2021/03/12 03:16:13;;;;;;;2.17;0.43;;;6.00;73.00;;;;;;5037073;28;20051;-58
2021/03/12 03:18:39;;;;;;;2.38;0.50;;;6.00;72.10;;;;;;5044438;28;20045;-58
2021/03/12 03:21:05;;;;;;;1.42;0.40;;;6.00;73.20;;;;;;5044267;28;20394;-59
2021/03/12 03:23:32;;;;;;;0.50;0.40;;;6.00;72.90;;;;;;5044286;28;20033;-59
2021/03/12 03:25:58;;;;;;;2.70;0.50;;;5.90;73.20;;;;;;5044761;28;20040;-58
2021/03/12 03:28:23;;;;;;;0.90;0.32;;;5.90;73.50;;;;;;5011738;28;20046;-59
2021/03/12 03:30:49;;;;;;;2.40;0.63;;;5.90;73.50;;;;;;5035107;28;20064;-59
2021/03/12 03:33:14;;;;;;;0.85;0.40;;;5.90;73.50;;;;;;5044244;28;20079;-59
2021/03/12 03:35:40;;;;;;;0.95;0.35;;;5.90;73.70;;;;;;5044038;28;20041;-58
2021/03/12 03:38:05;;;;;;;2.10;0.40;;;5.90;73.50;;;;;;5045878;28;20033;-58
2021/03/12 03:40:31;;;;;;;0.82;0.40;;;5.90;73.70;;;;;;5044387;28;20091;-59
2021/03/12 03:42:57;;;;;;;1.40;0.40;;;5.90;74.10;;;;;;5044275;28;20096;-58
2021/03/12 03:45:25;;;;;;;0.98;0.50;;;5.90;74.30;;;;;;5043895;28;20037;-59
2021/03/12 03:47:50;;;;;;;1.83;0.40;;;6.00;73.70;;;;;;5026808;28;20045;-58
2021/03/12 03:50:16;;;;;;;0.82;0.40;;;6.00;74.30;;;;;;5045379;28;20033;-59
2021/03/12 03:52:42;;;;;;;1.23;0.40;;;5.90;73.80;;;;;;5042866;28;20048;-59
2021/03/12 03:55:08;;;;;;;1.50;0.40;;;5.90;74.30;;;;;;5026712;28;20221;-58
2021/03/12 03:57:34;;;;;;;2.85;0.50;;;5.90;74.00;;;;;;5043568;28;20105;-59
2021/03/12 03:59:59;;;;;;;1.10;0.50;;;6.00;74.40;;;;;;5042463;28;20041;-58
2021/03/12 04:02:24;;;;;;;1.98;0.50;;;6.00;74.10;;;;;;5044043;28;20096;-59
2021/03/12 04:04:51;;;;;;;2.63;0.50;;;6.10;74.50;;;;;;5044054;28;20057;-59
2021/03/12 04:07:18;;;;;;;1.25;0.40;;;6.10;74.00;;;;;;5042792;28;20071;-58
2021/03/12 04:09:44;;;;;;;2.60;0.60;;;6.10;73.70;;;;;;5043572;28;20210;-58
2021/03/12 04:12:11;;;;;;;2.78;0.50;;;6.30;73.90;;;;;;5042729;28;20329;-58
2021/03/12 04:14:36;;;;;;;3.42;0.70;;;6.20;73.60;;;;;;5042165;28;20030;-58
2021/03/12 04:17:02;;;;;;;3.97;0.73;;;6.20;73.20;;;;;;5045096;28;20045;-58
2021/03/12 04:19:28;;;;;;;3.17;0.50;;;6.30;72.70;;;;;;5043498;28;20037;-58
2021/03/12 04:21:53;;;;;;;1.80;0.50;;;6.30;73.00;;;;;;5014538;28;20041;-58
2021/03/12 04:24:19;;;;;;;1.55;0.52;;;6.30;73.00;;;;;;5022289;28;20089;-58
2021/03/12 04:26:45;;;;;;;1.42;0.40;;;6.40;73.20;;;;;;5024536;28;20089;-59
2021/03/12 04:29:10;;;;;;;2.10;0.60;;;6.40;73.10;;;;;;5044861;28;20029;-58
2021/03/12 04:31:36;;;;;;;2.25;0.40;;;6.30;73.00;;;;;;5043478;28;20097;-59
2021/03/12 04:34:01;;;;;;;0.45;0.40;;;6.30;73.60;;;;;;5042099;28;20072;-58
2021/03/12 04:36:27;;;;;;;1.75;0.50;;;6.30;73.70;;;;;;5041947;28;20135;-58
2021/03/12 04:38:52;;;;;;;1.30;0.40;;;6.40;73.70;;;;;;5025372;28;20045;-58
2021/03/12 04:41:18;;;;;;;1.45;0.40;;;6.30;73.80;;;;;;5043662;28;20033;-58
2021/03/12 04:43:44;;;;;;;1.92;0.50;;;6.30;74.20;;;;;;5042081;28;20109;-58
2021/03/12 04:46:09;;;;;;;1.25;0.50;;;6.30;74.00;;;;;;5025228;28;20041;-59
2021/03/12 04:48:35;;;;;;;2.55;0.52;;;6.20;73.70;;;;;;5042894;28;20033;-58
2021/03/12 04:51:01;;;;;;;2.13;0.70;;;6.30;72.60;;;;;;5021055;28;20034;-58
2021/03/12 04:53:30;;;;;;;2.60;0.63;;;6.20;71.90;;;;;;5023760;28;20145;-58
2021/03/12 04:55:56;;;;;;;1.95;0.60;;;6.20;72.30;;;;;;5043483;28;20037;-59
2021/03/12 04:58:22;;;;;;;2.15;0.70;;;6.20;72.50;;;;;;5025514;28;20033;-59
2021/03/12 05:00:47;;;;;;;4.80;0.80;;;6.30;72.60;;;;;;5042581;28;20371;-59
2021/03/12 05:03:13;;;;;;;0.70;0.47;;;6.20;72.30;;;;;;5041483;28;20056;-58
2021/03/12 05:05:39;;;;;;;4.47;0.70;;;6.20;72.20;;;;;;5041927;28;20116;-59
2021/03/12 05:08:07;;;;;;;3.35;0.70;;;6.10;73.40;;;;;;5026896;28;20056;-58
2021/03/12 05:10:33;;;;;;;2.67;0.50;;;6.00;73.80;;;;;;5041811;28;20079;-59
2021/03/12 05:12:58;;;;;;;1.67;0.60;;;6.00;74.00;;;;;;5042482;28;20042;-58
2021/03/12 05:15:24;;;;;;;4.07;0.68;;;6.00;74.40;;;;;;5041201;28;20057;-59
2021/03/12 05:17:49;;;;;;;2.65;0.88;;;6.10;74.30;;;;;;5042297;28;20044;-59
2021/03/12 05:20:15;;;;;;;4.30;0.93;;;6.10;74.00;;;;;;5044166;28;20286;-59
2021/03/12 05:22:41;;;;;;;2.70;0.90;;;6.00;73.50;;;;;;5042818;28;20036;-59
2021/03/12 05:25:06;;;;;;;5.22;0.80;;;6.00;74.20;;;;;;5042251;28;20088;-58
2021/03/12 05:27:32;;;;;;;4.88;0.75;;;6.00;73.90;;;;;;5042594;28;20034;-59
2021/03/12 05:29:57;;;;;;;3.50;0.88;;;6.00;73.50;;;;;;5042444;28;20329;-59
2021/03/12 05:32:23;;;;;;;2.85;0.80;;;6.00;73.50;;;;;;5043665;28;20107;-59
2021/03/12 05:34:48;;;;;;;2.22;0.82;;;6.00;73.30;;;;;;5042973;28;20337;-58
2021/03/12 05:37:14;;;;;;;4.20;0.80;;;6.00;73.70;;;;;;5042604;28;20037;-58
2021/03/12 05:39:39;;;;;;;4.65;0.90;;;6.00;73.60;;;;;;5042067;28;20044;-59
2021/03/12 05:42:06;;;;;;;3.78;0.77;;;6.10;73.30;;;;;;5042598;28;20220;-58
2021/03/12 05:44:31;;;;;;;5.45;0.73;;;6.00;73.40;;;;;;5041255;28;20048;-59
2021/03/12 05:46:57;;;;;;;1.73;0.70;;;6.00;73.60;;;;;;5026195;28;20030;-59
2021/03/12 05:49:22;;;;;;;2.50;0.73;;;6.00;74.00;;;;;;5042415;28;20045;-58
2021/03/12 05:51:48;;;;;;;3.97;0.80;;;6.10;74.00;;;;;;5014139;28;20037;-59
2021/03/12 05:54:13;;;;;;;1.75;0.60;;;6.10;73.70;;;;;;5028119;28;20080;-59
2021/03/12 05:56:39;;;;;;;2.03;0.60;;;6.20;74.00;;;;;;5041838;28;20033;-58
2021/03/12 05:59:04;;;;;;;3.70;0.60;;;6.20;74.30;;;;;;5044225;28;20034;-58
2021/03/12 06:01:30;;;;;;;4.90;0.80;;;6.20;74.20;;;;;;5046213;28;20045;-59
2021/03/12 06:03:56;;;;;;;2.20;0.50;;;6.30;74.50;;;;;;5045726;28;20060;-59
2021/03/12 06:06:22;;;;;;;5.70;0.80;;;6.40;73.90;;;;;;5045334;28;20037;-58
2021/03/12 06:08:47;;;;;;;4.13;0.80;;;6.30;74.80;;;;;;5044572;28;20036;-59
2021/03/12 06:11:12;;;;;;;2.85;0.68;;;6.40;74.30;;;;;;5047440;28;20044;-59
2021/03/12 06:13:51;;;;;;;2.45;0.60;;;6.40;74.40;;;;;;5045883;28;20209;-59
2021/03/12 06:16:23;;;;;;;5.13;0.75;;;6.50;73.80;;;;;;5044393;28;20112;-59
2021/03/12 06:19:15;;;;;;;4.28;0.90;;;6.50;74.00;;;;;;5045570;28;20060;-59
2021/03/12 06:21:41;;;;;;;;;;;6.50;73.40;;;;;;5044845;28;20199;-59
2021/03/12 06:24:31;;;;;;;3.75;1.02;;;6.60;73.30;;;;;;5045554;28;19912;-59
2021/03/12 06:26:57;;;;;;;2.33;0.70;;;6.60;73.40;;;;;;5045313;28;20033;-59
2021/03/12 06:29:34;;;;;;;4.47;0.80;;;6.70;73.20;;;;;;5046817;28;20317;-60
2021/03/12 06:32:02;;;;;;;6.82;1.50;;;6.80;73.40;;;;;;5045006;28;20033;-60
2021/03/12 06:34:27;;;;;;;3.00;0.70;;;6.80;73.50;;;;;;5045172;28;20041;-59
2021/03/12 06:36:53;;;;;;;3.33;0.80;;;6.80;73.40;;;;;;5044075;28;20108;-58
2021/03/12 06:39:18;;;;;;;4.95;0.80;;;6.80;74.00;;;;;;5037339;28;20026;-59
2021/03/12 06:41:45;;;;;;;3.22;0.82;;;6.90;74.40;;;;;;5027177;28;20034;-59
2021/03/12 06:44:43;;;;;;;3.70;1.10;;;6.90;74.50;;;;;;5046473;28;20084;-59
2021/03/12 06:47:09;;;;;;;4.20;1.00;;;6.90;75.00;;;;;;5002018;28;20080;-59
2021/03/12 06:49:50;;;;;;;3.45;1.30;;;6.90;75.10;;;;;;5044888;28;20030;-59
2021/03/12 06:52:15;;;;;;;;;;;7.00;75.30;;;;;;5044375;28;20037;-59
2021/03/12 06:54:53;;;;;;;4.22;1.08;;;7.00;74.80;;;;;;5044963;28;19956;-59
2021/03/12 06:57:20;;;;;;;3.72;1.00;;;7.30;74.60;;;;;;5038145;28;20098;-59
2021/03/12 06:59:45;;;;;;;2.35;1.48;;;7.60;73.20;;;;;;5026623;28;20108;-59
2021/03/12 07:02:11;;;;;;;4.20;0.82;;;8.20;71.60;;;;;;5046117;28;20033;-58
2021/03/12 07:04:38;;;;;;;2.97;1.23;;;8.70;68.40;;;;;;5045233;28;20053;-59
2021/03/12 07:07:03;;;;;;;4.50;0.93;;;9.00;66.40;;;;;;5044814;28;20037;-59
2021/03/12 07:09:29;;;;;;;3.85;1.08;;;8.70;67.10;;;;;;5044415;28;20056;-59
2021/03/12 07:11:56;;;;;;;5.97;1.00;;;8.40;66.80;;;;;;5044490;28;20090;-58
2021/03/12 07:14:22;;;;;;;1.42;0.80;;;8.10;67.60;;;;;;5046552;28;20026;-60
2021/03/12 07:16:49;;;;;;;3.13;0.90;;;8.10;68.70;;;;;;5044822;28;20113;-59
2021/03/12 07:19:15;;;;;;;4.30;2.10;;;8.00;68.10;;;;;;5044796;28;20037;-59
2021/03/12 07:21:41;;;;;;;2.72;1.70;;;11.90;60.90;;;;;;5043927;28;20033;-59
2021/03/12 07:24:06;;;;;;;2.40;0.90;;;15.40;48.20;;;;;;5044162;28;20066;-59
2021/03/12 07:26:43;;;;;;;3.50;0.82;;;17.30;41.40;;;;;;5043307;28;20044;-60
2021/03/12 07:29:10;;;;;;;3.22;1.30;;;15.50;44.70;;;;;;5045805;28;20025;-59
2021/03/12 07:31:36;;;;;;;2.10;1.20;;;17.00;42.10;;;;;;5044548;28;20045;-60
2021/03/12 07:34:10;;;;;;;2.45;1.23;;;19.40;37.00;;;;;;5044471;28;20145;-60
2021/03/12 07:36:35;;;;;;;3.60;1.23;;;21.40;33.00;;;;;;5043735;28;20041;-60
2021/03/12 07:39:02;;;;;;;2.03;0.50;;;22.60;30.60;;;;;;5042968;28;20060;-60
2021/03/12 07:41:27;;;;;;;2.42;0.63;;;21.80;30.50;;;;;;5045552;28;20060;-60
2021/03/12 07:43:53;;;;;;;4.03;0.70;;;19.10;35.10;;;;;;5044298;28;20491;-60
2021/03/12 07:46:18;;;;;;;2.88;0.75;;;16.80;38.00;;;;;;5042901;28;20033;-60
2021/03/12 07:48:44;;;;;;;2.10;0.70;;;15.30;42.00;;;;;;5016089;28;20038;-60
2021/03/12 07:51:15;;;;;;;2.85;0.65;;;16.10;39.40;;;;;;5029226;28;20025;-60
2021/03/12 07:53:44;;;;;;;3.30;0.70;;;15.40;41.40;;;;;;5041997;28;20213;-59
2021/03/12 07:56:12;;;;;;;3.20;0.85;;;14.40;43.10;;;;;;5025501;28;20034;-59
2021/03/12 07:58:51;;;;;;;3.38;0.73;;;13.90;43.60;;;;;;5041278;28;20109;-60
2021/03/12 08:01:17;;;;;;;2.83;0.88;;;13.00;45.50;;;;;;5043024;28;20059;-60
2021/03/12 08:03:43;;;;;;;4.20;0.70;;;12.20;47.90;;;;;;5043248;28;20083;-60
2021/03/12 08:06:18;;;;;;;2.85;0.70;;;11.40;49.30;;;;;;5043425;28;20029;-60
2021/03/12 08:08:44;;;;;;;3.63;1.27;;;11.10;50.80;;;;;;5043205;28;20087;-61
2021/03/12 08:11:22;;;;;;;4.25;0.98;;;10.80;50.60;;;;;;5045268;28;20063;-60
2021/03/12 08:13:51;;;;;;;2.70;0.90;;;10.50;51.30;;;;;;5043541;28;20045;-60
2021/03/12 08:16:17;;;;;;;4.25;1.00;;;10.20;52.40;;;;;;5043501;28;20041;-60
2021/03/12 08:18:43;;;;;;;3.35;0.70;;;9.80;52.40;;;;;;5042496;28;20037;-61
2021/03/12 08:21:28;;;;;;;3.03;0.70;;;9.80;52.90;;;;;;5042683;28;20033;-59
2021/03/12 08:23:53;;;;;;;3.30;1.00;;;10.00;52.40;;;;;;5043380;28;20030;-62
2021/03/12 08:26:50;;;;;;;2.58;1.30;;;11.90;48.60;;;;;;5044743;28;20347;-63
2021/03/12 08:29:44;;;;;;;2.95;1.20;;;15.40;39.80;;;;;;5044125;28;20030;-63
2021/03/12 08:32:34;;;;;;;3.50;1.35;;;19.20;33.20;;;;;;5044140;28;20041;-62
2021/03/12 08:34:59;;;;;;;2.50;1.05;;;21.80;28.90;;;;;;5044029;28;20040;-62
2021/03/12 08:37:25;;;;;;;2.25;1.10;;;22.80;27.90;;;;;;5042909;28;20277;-62
2021/03/12 08:40:10;;;;;;;4.03;1.13;;;23.40;26.10;;;;;;5042711;28;20103;-62
2021/03/12 08:43:07;;;;;;;3.80;1.00;;;24.50;25.20;;;;;;5042924;28;20038;-62
2021/03/12 08:45:35;;;;;;;1.65;0.63;;;25.10;24.70;;;;;;5034704;28;20038;-60
2021/03/12 08:48:10;;;;;;;1.90;0.55;;;23.20;26.30;;;;;;5027147;28;20033;-61
2021/03/12 08:50:37;;;;;;;3.58;0.68;;;21.80;28.20;;;;;;5042803;28;20029;-62
2021/03/12 08:53:06;;;;;;;2.92;0.82;;;20.10;30.70;;;;;;5044566;28;20210;-62
2021/03/12 08:55:35;;;;;;;2.53;0.60;;;19.30;30.50;;;;;;5042611;28;20059;-62
2021/03/12 08:58:17;;;;;;;2.20;0.63;;;18.30;32.60;;;;;;5042285;28;20100;-60
2021/03/12 09:00:43;;;;;;;3.13;0.82;;;17.90;33.40;;;;;;5042336;28;20228;-60
2021/03/12 09:03:29;;;;;;;1.75;0.40;;;17.60;34.80;;;;;;5037179;28;20097;-60
2021/03/12 09:06:02;;;;;;;3.10;0.60;;;17.30;34.90;;;;;;5026257;28;20325;-60
2021/03/12 09:08:28;;;;;;;4.22;0.65;;;17.20;35.60;;;;;;5044085;28;20079;-60
2021/03/12 09:10:54;;;;;;;3.95;1.17;;;17.00;35.90;;;;;;5042286;28;20037;-60
2021/03/12 09:13:24;;;;;;;2.13;0.60;;;16.70;34.80;;;;;;5027428;28;20038;-60
2021/03/12 09:15:50;;;;;;;2.13;0.80;;;16.50;35.80;;;;;;5033321;28;20352;-60
2021/03/12 09:18:17;;;;;;;2.08;0.52;;;16.50;36.30;;;;;;5042508;28;20093;-59
2021/03/12 09:20:43;;;;;;;3.33;1.10;;;16.60;35.70;;;;;;5040678;28;20053;-60
2021/03/12 09:23:09;;;;;;;3.15;0.60;;;16.40;36.40;;;;;;5024497;28;20029;-60
2021/03/12 09:25:34;;;;;;;3.90;0.80;;;16.70;35.60;;;;;;5039875;28;20029;-60
2021/03/12 09:28:06;;;;;;;2.08;0.68;;;16.30;34.90;;;;;;5029912;28;20030;-59
2021/03/12 09:30:32;;;;;;;;;;;16.70;35.40;;;;;;5031090;28;20037;-60
2021/03/12 09:32:58;;;;;;;3.67;0.65;;;16.60;35.80;;;;;;5043621;28;20240;-60
2021/03/12 09:35:24;;;;;;;8.40;1.80;;;16.00;35.80;;;;;;5048215;28;20091;-60
2021/03/12 09:37:51;;;;;;;2.45;0.60;;;15.90;35.40;;;;;;5046602;28;20038;-60
2021/03/12 09:40:39;;;;;;;2.45;0.77;;;15.60;34.70;;;;;;5046415;28;20041;-61
2021/03/12 09:43:04;;;;;;;3.13;0.60;;;14.90;35.10;;;;;;5046381;28;20040;-60
2021/03/12 09:45:30;;;;;;;4.43;0.70;;;14.50;35.80;;;;;;5037946;28;20062;-60
2021/03/12 09:47:55;;;;;;;4.88;0.88;;;13.90;35.30;;;;;;5029646;28;20026;-60
2021/03/12 09:50:23;;;;;;;3.50;0.70;;;14.00;36.10;;;;;;5047501;28;20025;-61
2021/03/12 09:52:49;;;;;;;4.50;0.88;;;13.90;36.20;;;;;;5045330;28;20037;-60
2021/03/12 09:55:15;;;;;;;2.25;0.60;;;13.50;36.40;;;;;;5046339;28;20037;-60
2021/03/12 09:57:41;;;;;;;6.53;1.05;;;13.30;37.00;;;;;;5045919;28;20240;-60
2021/03/12 10:00:07;;;;;;;5.00;0.80;;;13.30;37.70;;;;;;5023741;28;20050;-60
2021/03/12 10:02:33;;;;;;;3.05;0.80;;;12.90;37.30;;;;;;5026121;28;20329;-60
2021/03/12 10:05:04;;;;;;;3.55;0.77;;;12.70;38.50;;;;;;5026688;28;20044;-60
2021/03/12 10:07:38;;;;;;;;;;;12.80;38.20;;;;;;5043158;28;20044;-60
2021/03/12 10:10:36;;;;;;;2.00;0.68;;;13.40;39.90;;;;;;5046039;28;19912;-59
2021/03/12 10:13:05;;;;;;;1.88;0.70;;;13.90;36.80;;;;;;5002383;28;20037;-60
2021/03/12 10:15:35;;;;;;;3.97;0.80;;;14.30;39.00;;;;;;5045515;28;20363;-59
2021/03/12 10:18:01;;;;;;;2.58;0.73;;;14.40;37.40;;;;;;5045176;28;20087;-60
2021/03/12 10:20:28;;;;;;;4.85;0.70;;;14.60;36.50;;;;;;5046895;28;20083;-60
2021/03/12 10:22:57;;;;;;;3.25;0.82;;;14.80;36.80;;;;;;5045045;28;20041;-60
2021/03/12 10:25:30;;;;;;;3.72;0.77;;;14.70;36.20;;;;;;5045318;28;20037;-60
2021/03/12 10:28:12;;;;;;;5.00;0.75;;;14.80;37.30;;;;;;5045227;28;20057;-60
2021/03/12 10:30:39;;;;;;;1.95;0.75;;;14.80;36.80;;;;;;5045702;28;20037;-60
2021/03/12 10:33:09;;;;;;;6.05;0.90;;;14.80;37.00;;;;;;5045406;28;20038;-60
2021/03/12 10:35:42;;;;;;;3.73;0.87;;;14.90;36.80;;;;;;5045247;28;20037;-61
2021/03/12 10:38:08;;;;;;;4.25;0.98;;;15.30;35.70;;;;;;5047066;28;20029;-60
2021/03/12 10:40:38;;;;;;;3.33;0.85;;;15.80;36.50;;;;;;5045617;28;20037;-60
2021/03/12 10:43:33;;;;;;;10.80;4.63;;;16.00;35.90;;;;;;5044976;28;20045;-61
2021/03/12 10:46:02;;;;;;;3.53;1.52;;;16.00;35.00;;;;;;5041945;28;20097;-60
2021/03/12 10:48:49;;;;;;;4.00;1.02;;;16.20;35.40;;;;;;5044736;28;20049;-60
2021/03/12 10:51:16;;;;;;;3.22;0.82;;;16.20;35.70;;;;;;5045062;28;20071;-60
2021/03/12 10:53:48;;;;;;;2.67;0.82;;;16.40;34.30;;;;;;5044836;28;20041;-60
2021/03/12 10:56:14;;;;;;;2.67;1.08;;;16.40;34.50;;;;;;5046419;28;20033;-60
2021/03/12 10:58:39;;;;;;;6.03;0.98;;;16.40;33.60;;;;;;5045278;28;20037;-60
2021/03/12 11:01:09;;;;;;;5.15;0.70;;;16.00;33.90;;;;;;5044813;28;20041;-61
2021/03/12 11:03:35;;;;;;;4.25;0.88;;;16.10;35.60;;;;;;5044873;28;20216;-61
2021/03/12 11:06:01;;;;;;;5.13;0.90;;;16.30;34.90;;;;;;5044667;28;20037;-60
2021/03/12 11:08:30;;;;;;;4.90;1.02;;;16.50;35.30;;;;;;5046391;28;20340;-60
2021/03/12 11:10:56;;;;;;;3.25;0.88;;;16.70;33.30;;;;;;5044458;28;20044;-60
2021/03/12 11:13:22;;;;;;;5.10;0.80;;;17.00;33.90;;;;;;5045043;28;20045;-58
2021/03/12 11:15:47;;;;;;;3.67;0.80;;;17.00;33.30;;;;;;5044456;28;20101;-59
2021/03/12 11:18:13;;;;;;;2.75;0.90;;;17.10;33.90;;;;;;5044650;28;20029;-59
2021/03/12 11:20:38;;;;;;;5.35;0.90;;;16.40;32.80;;;;;;5044891;28;20029;-59
2021/03/12 11:23:04;;;;;;;2.53;0.90;;;16.10;34.30;;;;;;5046197;28;20037;-59
2021/03/12 11:25:29;;;;;;;2.83;0.70;;;15.90;35.10;;;;;;5044550;28;20036;-62
2021/03/12 11:27:55;;;;;;;5.88;0.90;;;15.60;34.00;;;;;;5043329;28;20049;-60
2021/03/12 11:30:21;;;;;;;3.67;1.08;;;15.00;35.30;;;;;;5044231;28;20053;-60
2021/03/12 11:32:47;;;;;;;2.05;0.95;;;14.80;35.70;;;;;;5041812;28;20030;-61
2021/03/12 11:35:13;;;;;;;5.35;0.90;;;14.40;35.70;;;;;;5026435;28;20032;-61
2021/03/12 11:37:39;;;;;;;5.45;0.82;;;14.10;36.80;;;;;;5042350;28;20234;-61
2021/03/12 11:40:07;;;;;;;4.55;0.93;;;13.90;36.90;;;;;;5043972;28;20041;-60
2021/03/12 11:42:33;;;;;;;3.50;1.17;;;13.80;36.80;;;;;;5043753;28;20101;-61
2021/03/12 11:44:58;;;;;;;2.42;0.90;;;13.90;37.00;;;;;;5043795;28;20034;-61
2021/03/12 11:47:25;;;;;;;2.67;1.02;;;13.60;35.90;;;;;;5046008;28;20056;-60
2021/03/12 11:49:50;;;;;;;2.80;0.85;;;13.80;37.20;;;;;;5044376;28;20104;-61
2021/03/12 11:52:17;;;;;;;2.40;0.63;;;13.60;37.40;;;;;;5044114;28;20056;-61
2021/03/12 11:54:42;;;;;;;4.22;1.10;;;13.40;35.90;;;;;;5043909;28;20033;-59
2021/03/12 11:57:08;;;;;;;4.47;1.00;;;13.20;36.50;;;;;;5042597;28;20091;-60
2021/03/12 11:59:33;;;;;;;4.30;1.13;;;13.10;36.70;;;;;;5043452;28;20079;-59
2021/03/12 12:02:00;;;;;;;4.95;0.90;;;12.80;35.80;;;;;;5045614;28;20033;-59
2021/03/12 12:04:27;;;;;;;3.42;0.77;;;12.80;36.40;;;;;;5042688;28;20067;-59
2021/03/12 12:06:53;;;;;;;3.70;0.90;;;12.70;36.90;;;;;;5043858;28;20259;-60
2021/03/12 12:09:19;;;;;;;2.33;0.63;;;12.40;35.60;;;;;;5043740;28;20029;-60
2021/03/12 12:11:44;;;;;;;5.30;0.82;;;12.30;35.10;;;;;;5043659;28;20083;-60
2021/03/12 12:14:10;;;;;;;2.33;0.82;;;12.30;35.50;;;;;;5045055;28;20028;-59
2021/03/12 12:16:36;;;;;;;2.63;0.60;;;12.20;34.80;;;;;;5043440;28;20037;-59
2021/03/12 12:19:05;;;;;;;4.30;0.80;;;12.10;36.50;;;;;;5031291;28;20060;-60
2021/03/12 12:21:31;;;;;;;2.60;0.63;;;11.90;35.60;;;;;;5031675;28;20119;-59
2021/03/12 12:23:56;;;;;;;4.05;0.75;;;12.00;36.50;;;;;;5043625;28;20288;-59
2021/03/12 12:26:22;;;;;;;3.80;0.70;;;11.90;36.00;;;;;;5043994;28;20248;-61
2021/03/12 12:28:48;;;;;;;4.13;1.25;;;11.90;37.20;;;;;;5043626;28;20042;-61
2021/03/12 12:31:14;;;;;;;3.85;0.80;;;11.90;37.30;;;;;;5043018;28;20042;-61
2021/03/12 12:33:40;;;;;;;2.20;0.60;;;12.20;36.70;;;;;;5042989;28;20103;-61
2021/03/12 12:36:07;;;;;;;2.70;0.70;;;12.70;36.60;;;;;;5042681;28;20121;-60
2021/03/12 12:38:33;;;;;;;3.25;0.70;;;13.00;36.80;;;;;;5043251;28;20212;-60
2021/03/12 12:40:58;;;;;;;3.47;0.70;;;13.00;35.90;;;;;;5044464;28;20030;-61
2021/03/12 12:43:24;;;;;;;2.90;0.90;;;13.30;35.70;;;;;;5042982;28;20045;-60
2021/03/12 12:45:49;;;;;;;2.60;0.82;;;13.70;35.10;;;;;;5042935;28;20033;-61
2021/03/12 12:48:15;;;;;;;2.67;0.70;;;14.10;35.70;;;;;;5043100;28;20320;-61
2021/03/12 12:50:40;;;;;;;3.70;1.50;;;14.30;35.50;;;;;;5042578;28;20053;-61
2021/03/12 12:53:06;;;;;;;9.60;5.65;;;14.60;34.60;;;;;;5044229;28;20026;-61
2021/03/12 12:55:31;;;;;;;3.67;0.82;;;14.90;34.00;;;;;;5043317;28;20232;-61
2021/03/12 12:57:57;;;;;;;3.17;0.70;;;15.10;31.40;;;;;;5042586;28;20333;-61